Time;durP1;ratioP1;P1;durP2;ratioP2;P2;SDS_P1;SDS_P2;PMS_P1;PMS_P2;Temp;Humidity;BMP_temperature;BMP_pressure;BME280_temperature;BME280_humidity;BME280_pressure;Samples;Min_cycle;Max_cycle;Signal;HPM_P1;HPM_P2
2022/06/27 00:01:58;;;;;;;4.95;3.97;;;20.30;99.90;;;;;;5092314;28;20103;-54
2022/06/27 00:04:24;;;;;;;4.30;3.90;;;20.20;99.90;;;;;;5092158;28;20024;-53
2022/06/27 00:06:49;;;;;;;9.48;4.05;;;20.10;99.90;;;;;;5092349;28;20047;-56
2022/06/27 00:09:15;;;;;;;11.25;4.13;;;20.10;99.90;;;;;;5092232;28;20062;-51
2022/06/27 00:11:41;;;;;;;4.43;4.00;;;20.10;99.90;;;;;;5093196;28;20102;-53
2022/06/27 00:14:06;;;;;;;4.85;4.38;;;20.10;99.90;;;;;;5093738;28;20709;-52
2022/06/27 00:16:32;;;;;;;4.97;4.05;;;20.10;99.90;;;;;;5093310;28;20020;-53
2022/06/27 00:18:58;;;;;;;9.90;5.03;;;20.00;99.90;;;;;;5093793;28;20613;-53
2022/06/27 00:21:24;;;;;;;6.80;3.83;;;20.00;99.90;;;;;;5093590;28;20051;-56
2022/06/27 00:23:50;;;;;;;6.28;4.30;;;20.00;99.90;;;;;;5092473;28;20447;-54
2022/06/27 00:26:15;;;;;;;6.20;4.47;;;20.00;99.90;;;;;;5092082;28;20103;-54
2022/06/27 00:28:41;;;;;;;4.50;4.03;;;19.90;99.90;;;;;;5092333;28;20054;-54
2022/06/27 00:31:06;;;;;;;4.93;4.43;;;19.80;99.90;;;;;;5092334;28;20089;-52
2022/06/27 00:33:32;;;;;;;5.07;4.28;;;19.70;99.90;;;;;;5092189;28;20020;-55
2022/06/27 00:35:58;;;;;;;7.35;4.10;;;19.60;99.90;;;;;;5092580;28;20086;-54
2022/06/27 00:38:23;;;;;;;5.20;4.40;;;19.50;99.90;;;;;;5093137;28;20024;-53
2022/06/27 00:40:49;;;;;;;4.35;3.95;;;19.50;99.90;;;;;;5092495;28;20135;-53
2022/06/27 00:43:15;;;;;;;9.60;5.20;;;19.40;99.90;;;;;;5091227;28;20082;-51
2022/06/27 00:45:40;;;;;;;6.78;5.65;;;19.30;99.90;;;;;;5091117;28;20099;-55
2022/06/27 00:48:06;;;;;;;6.50;4.72;;;19.30;99.90;;;;;;5091341;28;20092;-52
2022/06/27 00:50:32;;;;;;;11.02;4.88;;;19.30;99.90;;;;;;5091242;28;20028;-53
2022/06/27 00:52:58;;;;;;;5.28;4.78;;;19.10;99.90;;;;;;5091261;28;20060;-56
2022/06/27 00:55:24;;;;;;;8.65;5.38;;;19.10;99.90;;;;;;5091107;28;20024;-55
2022/06/27 00:57:51;;;;;;;6.63;4.93;;;19.00;99.90;;;;;;5091503;28;20081;-52
2022/06/27 01:00:17;;;;;;;5.65;4.72;;;19.00;99.90;;;;;;5090264;28;20031;-51
2022/06/27 01:02:42;;;;;;;6.95;5.20;;;19.10;99.90;;;;;;5091174;28;20024;-54
2022/06/27 01:05:12;;;;;;;7.80;4.90;;;19.10;99.90;;;;;;5090853;28;20043;-52
2022/06/27 01:07:38;;;;;;;6.85;5.15;;;19.20;99.90;;;;;;5090952;28;20109;-54
2022/06/27 01:10:05;;;;;;;11.23;5.00;;;19.30;99.90;;;;;;5090815;28;20036;-53
2022/06/27 01:12:32;;;;;;;10.88;5.55;;;19.30;99.90;;;;;;5091171;28;20028;-55
2022/06/27 01:14:59;;;;;;;5.97;5.22;;;19.30;99.90;;;;;;5092285;28;20035;-52
2022/06/27 01:17:26;;;;;;;6.07;5.18;;;19.30;99.90;;;;;;5091517;28;20091;-55
2022/06/27 01:19:52;;;;;;;9.18;5.80;;;19.30;99.90;;;;;;5090459;28;20035;-55
2022/06/27 01:22:18;;;;;;;7.22;5.18;;;19.40;99.90;;;;;;5091268;28;20020;-52
2022/06/27 01:24:44;;;;;;;7.68;4.88;;;19.30;99.90;;;;;;5092401;28;20641;-54
2022/06/27 01:27:10;;;;;;;7.93;5.65;;;19.40;99.90;;;;;;5092097;28;20017;-55
2022/06/27 01:29:37;;;;;;;6.30;5.40;;;19.30;99.90;;;;;;5092309;28;20089;-54
2022/06/27 01:32:03;;;;;;;8.23;5.85;;;19.20;99.90;;;;;;5091278;28;20047;-54
2022/06/27 01:34:29;;;;;;;6.20;4.97;;;19.20;99.90;;;;;;5090937;28;20052;-53
2022/06/27 01:36:55;;;;;;;6.97;5.70;;;19.20;99.90;;;;;;5089868;28;20111;-52
2022/06/27 01:39:23;;;;;;;6.03;5.43;;;19.20;99.90;;;;;;5091044;28;20034;-56
2022/06/27 01:41:51;;;;;;;6.65;5.35;;;19.20;99.90;;;;;;5091124;28;20059;-55
2022/06/27 01:44:19;;;;;;;6.18;5.57;;;19.10;99.90;;;;;;5090863;28;20012;-53
2022/06/27 01:46:47;;;;;;;13.07;6.18;;;19.00;99.90;;;;;;5091118;28;20016;-55
2022/06/27 01:49:14;;;;;;;6.15;5.38;;;18.90;99.90;;;;;;5089587;28;20539;-53
2022/06/27 01:51:42;;;;;;;9.25;5.47;;;18.90;99.90;;;;;;5089399;28;20035;-53
2022/06/27 01:54:12;;;;;;;6.63;5.50;;;18.90;99.90;;;;;;5088422;28;20387;-54
2022/06/27 01:56:40;;;;;;;11.88;6.28;;;18.80;99.90;;;;;;5089794;28;20503;-54
2022/06/27 01:59:06;;;;;;;9.38;5.50;;;18.70;99.90;;;;;;5089582;28;20034;-54
2022/06/27 02:01:31;;;;;;;9.55;5.43;;;18.60;99.90;;;;;;5090283;28;20134;-53
2022/06/27 02:03:59;;;;;;;10.55;5.30;;;18.60;99.90;;;;;;5090694;28;20440;-55
2022/06/27 02:06:26;;;;;;;7.10;5.97;;;18.50;99.90;;;;;;5090055;28;20483;-54
2022/06/27 02:08:52;;;;;;;12.75;6.65;;;18.40;99.90;;;;;;5088513;28;20028;-55
2022/06/27 02:11:19;;;;;;;7.15;5.57;;;18.30;99.90;;;;;;5089448;28;20065;-53
2022/06/27 02:13:46;;;;;;;14.63;6.32;;;18.20;99.90;;;;;;5090009;28;20031;-53
2022/06/27 02:16:14;;;;;;;17.42;5.95;;;18.20;99.90;;;;;;5088398;28;20231;-52
2022/06/27 02:18:42;;;;;;;7.30;6.35;;;18.20;99.90;;;;;;5086369;28;20035;-53
2022/06/27 02:21:10;;;;;;;9.85;5.97;;;18.20;99.90;;;;;;5090696;28;20023;-56
2022/06/27 02:23:36;;;;;;;11.82;7.15;;;18.20;99.90;;;;;;5089717;28;20019;-54
2022/06/27 02:26:02;;;;;;;9.15;5.75;;;18.20;99.90;;;;;;5086846;28;20074;-57
2022/06/27 02:28:29;;;;;;;7.68;5.70;;;18.10;99.90;;;;;;5088749;28;20108;-55
2022/06/27 02:30:55;;;;;;;8.88;6.68;;;18.10;99.90;;;;;;5089059;28;20024;-55
2022/06/27 02:33:21;;;;;;;7.90;6.25;;;18.10;99.90;;;;;;5088660;28;20032;-56
2022/06/27 02:35:48;;;;;;;12.60;6.30;;;18.00;99.90;;;;;;5090679;28;20070;-56
2022/06/27 02:38:16;;;;;;;9.20;5.88;;;18.00;99.90;;;;;;5090312;28;20021;-55
2022/06/27 02:40:44;;;;;;;6.78;6.07;;;17.90;99.90;;;;;;5050121;28;1164036;-56
2022/06/27 02:43:13;;;;;;;7.57;6.03;;;17.90;99.90;;;;;;5090479;28;20020;-55
2022/06/27 02:45:40;;;;;;;8.38;6.82;;;17.90;99.90;;;;;;5091161;28;20027;-56
2022/06/27 02:48:07;;;;;;;9.07;5.97;;;17.80;99.90;;;;;;5090876;28;20024;-53
2022/06/27 02:50:37;;;;;;;11.57;6.45;;;17.80;99.90;;;;;;5091050;28;20021;-56
2022/06/27 02:53:09;;;;;;;14.00;6.20;;;17.70;99.90;;;;;;5091057;28;20013;-54
2022/06/27 02:55:39;;;;;;;6.43;5.82;;;17.70;99.90;;;;;;5089892;28;20017;-52
2022/06/27 02:58:33;;;;;;;19.08;6.20;;;17.70;99.90;;;;;;5089630;28;20081;-56
2022/06/27 03:01:02;;;;;;;14.55;6.22;;;17.60;99.90;;;;;;5088191;28;20228;-53
2022/06/27 03:03:31;;;;;;;8.32;6.88;;;17.50;99.90;;;;;;5088457;28;20107;-55
2022/06/27 03:05:59;;;;;;;11.77;5.97;;;17.50;99.90;;;;;;5088339;28;20136;-55
2022/06/27 03:08:24;;;;;;;10.30;7.00;;;17.50;99.90;;;;;;5088232;28;20016;-57
2022/06/27 03:10:51;;;;;;;7.13;6.40;;;17.50;99.90;;;;;;5090679;28;20024;-55
2022/06/27 03:13:16;;;;;;;6.63;5.90;;;17.40;99.90;;;;;;5089381;28;20114;-54
2022/06/27 03:15:42;;;;;;;6.75;5.63;;;17.50;99.90;;;;;;5089309;28;20103;-55
2022/06/27 03:18:13;;;;;;;12.27;6.57;;;17.40;99.90;;;;;;5091148;28;20038;-54
2022/06/27 03:20:38;;;;;;;14.25;6.05;;;17.30;99.90;;;;;;5090962;28;20024;-54
2022/06/27 03:23:05;;;;;;;18.60;6.57;;;17.30;99.90;;;;;;5090123;28;20024;-53
2022/06/27 03:25:31;;;;;;;10.18;6.22;;;17.30;99.90;;;;;;5086980;28;20039;-53
2022/06/27 03:27:56;;;;;;;9.38;6.72;;;17.30;99.90;;;;;;5089353;28;20028;-55
2022/06/27 03:30:22;;;;;;;15.10;6.20;;;17.40;99.90;;;;;;5092395;28;20039;-55
2022/06/27 03:32:48;;;;;;;17.80;5.68;;;17.40;99.90;;;;;;5092835;28;20073;-52
2022/06/27 03:35:13;;;;;;;10.35;6.45;;;17.40;99.90;;;;;;5093717;28;20736;-56
2022/06/27 03:37:39;;;;;;;18.30;7.05;;;17.40;99.90;;;;;;5093211;28;20030;-56
2022/06/27 03:40:05;;;;;;;15.30;6.35;;;17.40;99.90;;;;;;5092931;28;20122;-55
2022/06/27 03:42:31;;;;;;;17.92;6.65;;;17.50;99.90;;;;;;5092429;28;20386;-51
2022/06/27 03:44:56;;;;;;;12.40;7.50;;;17.60;99.90;;;;;;5093342;28;20016;-54
2022/06/27 03:47:22;;;;;;;19.83;7.32;;;17.60;99.90;;;;;;5094100;28;20020;-55
2022/06/27 03:49:59;;;;;;;15.68;6.75;;;17.70;99.90;;;;;;5094166;28;20026;-55
2022/06/27 03:52:25;;;;;;;15.23;7.25;;;17.80;99.90;;;;;;5091282;28;20031;-55
2022/06/27 03:54:51;;;;;;;9.13;5.18;;;17.90;99.90;;;;;;5091115;28;20447;-54
2022/06/27 03:57:17;;;;;;;11.30;6.53;;;18.00;99.90;;;;;;5092370;28;20077;-56
2022/06/27 03:59:42;;;;;;;10.30;7.10;;;18.10;99.90;;;;;;5092328;28;20103;-55
2022/06/27 04:02:09;;;;;;;9.45;6.38;;;18.10;99.90;;;;;;5092394;28;20020;-55
2022/06/27 04:04:34;;;;;;;9.80;5.13;;;18.20;99.90;;;;;;5092097;28;20024;-54
2022/06/27 04:07:02;;;;;;;7.45;6.10;;;18.30;99.90;;;;;;5092436;28;20020;-53
2022/06/27 04:09:29;;;;;;;6.47;5.72;;;18.20;99.90;;;;;;5092545;28;20087;-57
2022/06/27 04:11:54;;;;;;;8.18;5.80;;;18.10;99.90;;;;;;5093328;28;20115;-53
2022/06/27 04:14:20;;;;;;;7.28;6.55;;;18.00;99.90;;;;;;5091254;28;20107;-55
2022/06/27 04:16:46;;;;;;;10.13;5.93;;;18.00;99.90;;;;;;5091229;28;20035;-54
2022/06/27 04:19:12;;;;;;;10.60;7.05;;;18.10;99.90;;;;;;5092142;28;20028;-55
2022/06/27 04:21:37;;;;;;;18.85;7.72;;;18.00;99.90;;;;;;5092165;28;20020;-52
2022/06/27 04:24:04;;;;;;;10.35;6.00;;;17.90;99.90;;;;;;5093514;28;20020;-56
2022/06/27 04:26:29;;;;;;;10.60;6.93;;;18.10;99.90;;;;;;5092952;28;20031;-54
2022/06/27 04:28:56;;;;;;;10.18;7.32;;;18.10;99.90;;;;;;5093522;28;20020;-56
2022/06/27 04:31:22;;;;;;;7.78;6.43;;;18.10;99.90;;;;;;5092957;28;20062;-55
2022/06/27 04:33:48;;;;;;;8.23;7.03;;;18.00;99.90;;;;;;5093305;28;20052;-55
2022/06/27 04:36:14;;;;;;;12.55;7.85;;;18.10;99.90;;;;;;5092194;28;20020;-52
2022/06/27 04:38:39;;;;;;;8.82;7.22;;;18.10;99.90;;;;;;5093550;28;20028;-56
2022/06/27 04:41:05;;;;;;;11.23;6.05;;;18.20;99.90;;;;;;5092317;28;20041;-54
2022/06/27 04:43:34;;;;;;;6.78;6.03;;;18.30;99.90;;;;;;5092812;28;20032;-55
2022/06/27 04:46:02;;;;;;;6.07;5.57;;;18.50;99.90;;;;;;5091409;28;20020;-53
2022/06/27 04:48:29;;;;;;;7.68;6.90;;;18.50;99.90;;;;;;5092798;28;20100;-54
2022/06/27 04:50:57;;;;;;;8.23;7.05;;;18.40;99.90;;;;;;5092742;28;20016;-55
2022/06/27 04:53:23;;;;;;;7.45;6.65;;;18.40;99.90;;;;;;5092147;28;20031;-55
2022/06/27 04:55:49;;;;;;;9.85;6.28;;;18.40;99.90;;;;;;5091589;28;20020;-53
2022/06/27 04:58:15;;;;;;;10.10;6.93;;;18.70;99.90;;;;;;5092494;28;20496;-56
2022/06/27 05:00:42;;;;;;;8.93;6.05;;;18.70;99.90;;;;;;5092108;28;20410;-53
2022/06/27 05:03:08;;;;;;;12.65;6.70;;;18.80;99.90;;;;;;5092313;28;20024;-54
2022/06/27 05:05:34;;;;;;;8.50;7.25;;;18.80;99.90;;;;;;5090884;28;20020;-55
2022/06/27 05:08:01;;;;;;;8.77;6.20;;;18.90;99.90;;;;;;5092272;28;20026;-56
2022/06/27 05:10:28;;;;;;;8.80;6.22;;;19.00;99.90;;;;;;5092446;28;20024;-53
2022/06/27 05:12:53;;;;;;;11.40;7.22;;;19.10;99.90;;;;;;5091356;28;20061;-55
2022/06/27 05:15:22;;;;;;;13.57;7.35;;;19.30;99.90;;;;;;5092103;28;20024;-57
2022/06/27 05:17:48;;;;;;;10.00;6.85;;;19.40;99.90;;;;;;5091690;28;20424;-55
2022/06/27 05:20:13;;;;;;;9.23;5.72;;;19.60;99.90;;;;;;5092373;28;20032;-55
2022/06/27 05:22:39;;;;;;;6.63;5.78;;;19.80;99.90;;;;;;5091990;28;20069;-56
2022/06/27 05:25:07;;;;;;;7.40;5.95;;;19.90;99.90;;;;;;5092427;28;20103;-54
2022/06/27 05:27:35;;;;;;;7.72;6.55;;;20.00;99.90;;;;;;5092309;28;20026;-55
2022/06/27 05:30:03;;;;;;;9.90;6.78;;;19.90;99.90;;;;;;5091374;28;20032;-54
2022/06/27 05:32:28;;;;;;;9.25;5.88;;;19.90;99.90;;;;;;5091978;28;20124;-55
2022/06/27 05:34:54;;;;;;;7.50;6.63;;;19.90;99.90;;;;;;5091889;28;20400;-54
2022/06/27 05:37:20;;;;;;;9.18;6.53;;;20.00;99.90;;;;;;5092070;28;20027;-57
2022/06/27 05:39:46;;;;;;;8.50;6.40;;;20.10;99.90;;;;;;5091427;28;20098;-56
2022/06/27 05:42:12;;;;;;;8.55;7.72;;;20.10;99.90;;;;;;5092480;28;20408;-57
2022/06/27 05:44:37;;;;;;;7.80;7.03;;;20.20;99.90;;;;;;5090521;28;20036;-52
2022/06/27 05:47:03;;;;;;;7.55;6.47;;;20.30;99.90;;;;;;5092047;28;20062;-56
2022/06/27 05:49:29;;;;;;;11.23;7.43;;;20.50;99.90;;;;;;5092192;28;20348;-57
2022/06/27 05:52:00;;;;;;;9.27;5.75;;;20.70;99.90;;;;;;5090753;28;20119;-56
2022/06/27 05:54:26;;;;;;;6.20;5.63;;;20.90;99.90;;;;;;5090883;28;20107;-53
2022/06/27 05:56:52;;;;;;;7.40;6.18;;;21.00;99.90;;;;;;5091157;28;20077;-54
2022/06/27 05:59:18;;;;;;;13.40;5.32;;;21.00;99.90;;;;;;5091479;28;20027;-54
2022/06/27 06:01:46;;;;;;;7.97;5.50;;;21.20;99.90;;;;;;5091748;28;20103;-55
2022/06/27 06:04:12;;;;;;;6.00;5.50;;;21.40;99.90;;;;;;5090785;28;20024;-54
2022/06/27 06:06:38;;;;;;;8.18;5.57;;;21.50;99.90;;;;;;5091158;28;20020;-54
2022/06/27 06:09:05;;;;;;;6.85;5.60;;;21.60;99.90;;;;;;5090369;28;20023;-53
2022/06/27 06:11:31;;;;;;;10.60;6.25;;;21.60;99.90;;;;;;5091664;28;20111;-56
2022/06/27 06:13:57;;;;;;;6.05;5.45;;;21.70;99.90;;;;;;5091447;28;20417;-55
2022/06/27 06:16:24;;;;;;;6.13;5.57;;;21.80;99.90;;;;;;5091657;28;20074;-53
2022/06/27 06:18:53;;;;;;;5.50;5.00;;;21.90;99.90;;;;;;5091467;28;20028;-52
2022/06/27 06:21:23;;;;;;;6.25;5.25;;;22.10;99.90;;;;;;5090234;28;20368;-51
2022/06/27 06:23:51;;;;;;;5.55;4.65;;;22.20;99.90;;;;;;5091739;28;20035;-56
2022/06/27 06:26:19;;;;;;;12.13;4.90;;;22.40;99.90;;;;;;5091513;28;20038;-57
2022/06/27 06:28:45;;;;;;;7.80;5.03;;;22.40;99.90;;;;;;5091404;28;20028;-54
2022/06/27 06:31:15;;;;;;;9.18;5.15;;;22.40;99.90;;;;;;5091113;28;20020;-56
2022/06/27 06:33:42;;;;;;;7.72;4.68;;;22.50;99.90;;;;;;5091212;28;20123;-54
2022/06/27 06:36:09;;;;;;;5.65;4.22;;;22.50;99.90;;;;;;5091545;28;20056;-56
2022/06/27 06:38:35;;;;;;;8.75;4.82;;;22.50;99.90;;;;;;5091371;28;20032;-56
2022/06/27 06:41:01;;;;;;;11.57;4.53;;;22.70;99.90;;;;;;5091418;28;20571;-56
2022/06/27 06:43:27;;;;;;;4.65;4.25;;;22.70;99.90;;;;;;5089562;28;20115;-54
2022/06/27 06:45:53;;;;;;;7.35;3.67;;;22.80;99.90;;;;;;5091248;28;20025;-56
2022/06/27 06:48:19;;;;;;;5.68;4.43;;;23.00;99.90;;;;;;5090926;28;20025;-54
2022/06/27 06:50:45;;;;;;;13.27;4.15;;;23.10;99.90;;;;;;5091463;28;20020;-55
2022/06/27 06:53:11;;;;;;;5.00;4.20;;;23.30;99.90;;;;;;5090879;28;20077;-55
2022/06/27 06:55:36;;;;;;;5.40;3.90;;;23.40;99.90;;;;;;5089305;28;20027;-56
2022/06/27 06:58:02;;;;;;;6.93;4.25;;;23.50;99.90;;;;;;5090746;28;20033;-53
2022/06/27 07:00:28;;;;;;;3.85;3.50;;;23.50;99.90;;;;;;5090806;28;20407;-56
2022/06/27 07:02:55;;;;;;;5.65;4.18;;;23.70;99.90;;;;;;5090996;28;20028;-54
2022/06/27 07:05:21;;;;;;;8.50;3.92;;;23.90;99.90;;;;;;5094305;28;20227;-56
2022/06/27 07:07:51;;;;;;;11.07;3.72;;;24.00;99.90;;;;;;5094872;28;20016;-55
2022/06/27 07:10:18;;;;;;;3.72;3.33;;;24.10;99.90;;;;;;5094770;28;20384;-56
2022/06/27 07:12:46;;;;;;;4.70;4.20;;;24.20;99.90;;;;;;5093398;28;20038;-53
2022/06/27 07:15:12;;;;;;;6.15;3.78;;;24.30;99.90;;;;;;5094887;28;20525;-55
2022/06/27 07:17:49;;;;;;;6.18;3.55;;;24.40;99.90;;;;;;5094856;28;20032;-56
2022/06/27 07:20:19;;;;;;;6.88;3.78;;;24.50;99.90;;;;;;5094607;28;20426;-55
2022/06/27 07:22:49;;;;;;;4.82;3.67;;;24.60;99.90;;;;;;5094744;28;20016;-56
2022/06/27 07:25:15;;;;;;;5.38;3.55;;;24.80;99.90;;;;;;5094668;28;20065;-54
2022/06/27 07:27:42;;;;;;;6.00;3.15;;;25.00;99.90;;;;;;5094493;28;20032;-53
2022/06/27 07:30:10;;;;;;;4.40;3.15;;;25.00;99.90;;;;;;5094612;28;20024;-56
2022/06/27 07:32:36;;;;;;;7.10;3.60;;;25.20;99.90;;;;;;5094463;28;20482;-55
2022/06/27 07:35:03;;;;;;;7.78;3.45;;;25.20;99.90;;;;;;5094379;28;20016;-52
2022/06/27 07:37:29;;;;;;;7.55;2.90;;;25.40;99.90;;;;;;5094280;28;20020;-55
2022/06/27 07:39:55;;;;;;;7.90;3.20;;;25.50;99.90;;;;;;5092789;28;20051;-54
2022/06/27 07:42:21;;;;;;;10.75;3.17;;;25.60;99.90;;;;;;5094333;28;20028;-56
2022/06/27 07:44:48;;;;;;;7.30;3.05;;;25.70;99.90;;;;;;5093977;28;20074;-54
2022/06/27 07:47:13;;;;;;;4.72;2.92;;;25.80;99.90;;;;;;5092631;28;20068;-55
2022/06/27 07:49:39;;;;;;;5.03;4.10;;;25.60;99.80;;;;;;5094278;28;20032;-54
2022/06/27 07:52:06;;;;;;;5.45;2.60;;;25.70;99.90;;;;;;5094222;28;20024;-55
2022/06/27 07:54:32;;;;;;;11.52;3.88;;;26.00;99.90;;;;;;5093768;28;20481;-54
2022/06/27 07:56:58;;;;;;;10.85;4.05;;;25.90;99.30;;;;;;5093929;28;20070;-54
2022/06/27 07:59:25;;;;;;;6.15;3.17;;;25.80;99.80;;;;;;5092913;28;20467;-55
2022/06/27 08:01:51;;;;;;;6.68;3.53;;;26.00;99.90;;;;;;5094114;28;20024;-55
2022/06/27 08:04:18;;;;;;;6.20;2.85;;;26.30;99.90;;;;;;5093785;28;20023;-56
2022/06/27 08:06:46;;;;;;;8.57;3.58;;;26.60;99.90;;;;;;5093988;28;20031;-56
2022/06/27 08:09:12;;;;;;;8.63;4.30;;;26.70;99.10;;;;;;5093639;28;20056;-56
2022/06/27 08:11:40;;;;;;;7.10;2.88;;;26.70;99.90;;;;;;5093643;28;20379;-56
2022/06/27 08:14:17;;;;;;;6.57;3.78;;;26.70;99.90;;;;;;5093740;28;20399;-57
2022/06/27 08:16:45;;;;;;;11.68;3.55;;;26.80;99.30;;;;;;5093441;28;20158;-54
2022/06/27 08:19:11;;;;;;;9.57;3.25;;;26.70;98.50;;;;;;5093579;28;20020;-55
2022/06/27 08:21:38;;;;;;;7.63;3.35;;;26.70;98.60;;;;;;5093547;28;20534;-56
2022/06/27 08:24:08;;;;;;;7.22;3.10;;;26.90;99.60;;;;;;5093695;28;20077;-53
2022/06/27 08:26:36;;;;;;;5.07;2.95;;;27.10;99.00;;;;;;5093512;28;20031;-57
2022/06/27 08:29:04;;;;;;;13.15;4.40;;;27.20;99.30;;;;;;5092285;28;20115;-54
2022/06/27 08:31:32;;;;;;;9.25;3.40;;;27.40;97.60;;;;;;5093186;28;20032;-56
2022/06/27 08:34:01;;;;;;;14.23;3.55;;;27.50;98.70;;;;;;5093357;28;20032;-56
2022/06/27 08:36:31;;;;;;;4.60;3.10;;;27.70;96.20;;;;;;5093268;28;20028;-56
2022/06/27 08:39:03;;;;;;;6.55;2.92;;;27.60;95.00;;;;;;5093238;28;20383;-57
2022/06/27 08:41:29;;;;;;;10.27;3.00;;;27.60;94.90;;;;;;5093117;28;20475;-55
2022/06/27 08:44:00;;;;;;;13.27;3.47;;;27.90;96.40;;;;;;5093379;28;20020;-53
2022/06/27 08:46:28;;;;;;;5.53;3.63;;;28.10;96.30;;;;;;5093214;28;20043;-57
2022/06/27 08:48:55;;;;;;;9.35;3.95;;;28.10;97.90;;;;;;5093208;28;20439;-56
2022/06/27 08:51:22;;;;;;;11.27;3.67;;;28.40;96.70;;;;;;5092717;28;20063;-54
2022/06/27 08:53:51;;;;;;;8.98;4.15;;;28.40;96.00;;;;;;5092361;28;20408;-55
2022/06/27 08:56:19;;;;;;;8.10;3.50;;;28.40;96.80;;;;;;5092640;28;20115;-55
2022/06/27 08:58:46;;;;;;;18.90;3.88;;;28.50;98.00;;;;;;5091475;28;20051;-56
2022/06/27 09:01:15;;;;;;;7.03;3.45;;;28.50;96.10;;;;;;5092858;28;20097;-55
2022/06/27 09:04:00;;;;;;;7.95;3.63;;;28.70;96.80;;;;;;5092847;28;20056;-57
2022/06/27 09:06:29;;;;;;;12.25;3.40;;;28.90;95.10;;;;;;5091213;28;20475;-56
2022/06/27 09:09:09;;;;;;;8.43;4.13;;;29.00;94.70;;;;;;5092721;28;20062;-55
2022/06/27 09:11:38;;;;;;;12.07;3.45;;;28.80;93.90;;;;;;5092348;28;20055;-56
2022/06/27 09:14:06;;;;;;;11.48;4.20;;;29.00;94.70;;;;;;5092676;28;20102;-55
2022/06/27 09:16:33;;;;;;;10.60;3.20;;;29.10;94.80;;;;;;5092604;28;20045;-56
2022/06/27 09:18:59;;;;;;;5.18;3.13;;;29.20;93.90;;;;;;5092460;28;20031;-57
2022/06/27 09:21:27;;;;;;;8.52;3.20;;;29.20;94.10;;;;;;5092470;28;20472;-55
2022/06/27 09:24:01;;;;;;;10.88;3.63;;;29.50;94.20;;;;;;5092482;28;20375;-55
2022/06/27 09:26:34;;;;;;;5.53;3.50;;;29.80;93.80;;;;;;5090570;28;20082;-58
2022/06/27 09:29:08;;;;;;;17.52;4.07;;;30.20;93.70;;;;;;5092358;28;20043;-55
2022/06/27 09:31:42;;;;;;;16.65;4.43;;;30.30;93.50;;;;;;5092211;28;20024;-57
2022/06/27 09:34:26;;;;;;;13.95;4.47;;;30.30;92.90;;;;;;5092285;28;20058;-56
2022/06/27 09:36:58;;;;;;;11.75;3.63;;;30.20;92.10;;;;;;5092361;28;20153;-55
2022/06/27 09:39:35;;;;;;;7.93;3.85;;;30.40;92.80;;;;;;5091968;28;20073;-55
2022/06/27 09:42:07;;;;;;;11.35;3.85;;;30.50;90.70;;;;;;5090704;28;20034;-57
2022/06/27 09:44:40;;;;;;;15.70;3.30;;;30.60;91.80;;;;;;5091833;28;20031;-55
2022/06/27 09:47:15;;;;;;;6.90;3.53;;;31.00;93.60;;;;;;5092163;28;20023;-56
2022/06/27 09:49:44;;;;;;;11.93;4.22;;;30.90;92.40;;;;;;5092168;28;20380;-55
2022/06/27 09:52:19;;;;;;;10.93;3.85;;;31.10;92.80;;;;;;5091482;28;20020;-56
2022/06/27 09:54:46;;;;;;;6.75;3.20;;;31.20;91.90;;;;;;5091907;28;20111;-57
2022/06/27 09:57:14;;;;;;;13.32;3.38;;;31.30;88.50;;;;;;5091909;28;20465;-56
2022/06/27 09:59:41;;;;;;;15.98;3.35;;;31.40;90.00;;;;;;5091997;28;20106;-56
2022/06/27 10:02:08;;;;;;;9.73;3.42;;;31.40;85.70;;;;;;5090544;28;20020;-56
2022/06/27 10:04:36;;;;;;;8.85;3.38;;;31.40;84.70;;;;;;5090436;28;20031;-57
2022/06/27 10:07:03;;;;;;;12.40;3.42;;;31.60;86.70;;;;;;5091685;28;20076;-57
2022/06/27 10:09:31;;;;;;;11.77;3.55;;;31.70;86.40;;;;;;5091363;28;20481;-56
2022/06/27 10:12:37;;;;;;;10.35;3.22;;;31.70;87.80;;;;;;5091473;28;20107;-56
2022/06/27 10:15:12;;;;;;;13.07;3.38;;;31.90;88.80;;;;;;5091564;28;20028;-57
2022/06/27 10:17:44;;;;;;;10.32;3.25;;;31.70;86.90;;;;;;5091653;28;20062;-58
2022/06/27 10:20:31;;;;;;;13.50;3.38;;;31.90;88.40;;;;;;5091365;28;20032;-55
2022/06/27 10:23:09;;;;;;;10.18;3.38;;;32.20;88.80;;;;;;5087669;28;20028;-57
2022/06/27 10:25:36;;;;;;;17.33;3.42;;;31.90;87.10;;;;;;5091402;28;20411;-57
2022/06/27 10:28:09;;;;;;;8.35;2.88;;;32.10;89.20;;;;;;5091106;28;20020;-56
2022/06/27 10:30:41;;;;;;;8.98;3.15;;;32.50;87.80;;;;;;5090779;28;20831;-56
2022/06/27 10:33:25;;;;;;;16.40;3.28;;;32.70;86.60;;;;;;5091508;28;20031;-57
2022/06/27 10:36:03;;;;;;;21.00;3.55;;;32.90;88.80;;;;;;5091271;28;20036;-57
2022/06/27 10:38:38;;;;;;;15.93;4.22;;;32.90;86.70;;;;;;5091422;28;20059;-57
2022/06/27 10:41:09;;;;;;;18.67;3.17;;;32.90;88.50;;;;;;5094996;28;20431;-56
2022/06/27 10:43:41;;;;;;;8.90;3.33;;;32.90;85.60;;;;;;5095455;28;20020;-56
2022/06/27 10:46:09;;;;;;;9.00;3.10;;;33.00;82.80;;;;;;5095563;28;20023;-57
2022/06/27 10:48:40;;;;;;;15.02;3.47;;;33.10;85.00;;;;;;5095312;28;20027;-57
2022/06/27 10:51:19;;;;;;;9.05;3.00;;;33.20;87.10;;;;;;5094524;28;20066;-57
2022/06/27 10:53:46;;;;;;;22.60;4.30;;;33.20;86.30;;;;;;5095163;28;20150;-57
2022/06/27 10:56:45;;;;;;;19.88;3.45;;;32.90;86.50;;;;;;5094874;28;20048;-58
2022/06/27 10:59:14;;;;;;;6.90;2.35;;;32.80;86.00;;;;;;5090510;28;20503;-56
2022/06/27 11:01:58;;;;;;;11.68;3.17;;;33.10;82.30;;;;;;5095130;28;20024;-56
2022/06/27 11:04:32;;;;;;;11.65;3.42;;;32.90;81.10;;;;;;5094963;28;20367;-54
2022/06/27 11:07:09;;;;;;;9.15;3.78;;;33.10;83.60;;;;;;5094646;28;20095;-57
2022/06/27 11:09:34;;;;;;;12.88;2.88;;;33.40;83.20;;;;;;5094268;28;20032;-56
2022/06/27 11:12:00;;;;;;;20.38;3.60;;;33.50;82.10;;;;;;5094835;28;20032;-57
2022/06/27 11:14:26;;;;;;;23.48;3.03;;;33.40;81.40;;;;;;5094965;28;20129;-56
2022/06/27 11:16:52;;;;;;;30.95;5.22;;;33.60;80.70;;;;;;5094938;28;20016;-57
2022/06/27 11:22:22;;;;;;;17.05;3.38;;;33.70;81.20;;;;;;5095906;28;20409;-53
2022/06/27 11:24:48;;;;;;;6.70;2.60;;;33.40;79.80;;;;;;5094361;28;20024;-57
2022/06/27 11:27:15;;;;;;;11.90;3.17;;;33.70;81.30;;;;;;5094603;28;20031;-56
2022/06/27 11:32:27;;;;;;;4.85;2.75;;;33.70;77.60;;;;;;5082624;28;20094;-57
2022/06/27 11:34:54;;;;;;;11.73;2.75;;;33.90;82.30;;;;;;5097491;28;20035;-54
2022/06/27 11:37:22;;;;;;;16.00;2.70;;;34.00;77.50;;;;;;5083522;28;20039;-58
2022/06/27 11:40:03;;;;;;;16.60;3.40;;;34.00;78.10;;;;;;5083178;28;21569;-58
2022/06/27 11:42:30;;;;;;;8.68;2.75;;;34.30;73.80;;;;;;5083633;28;20028;-57
2022/06/27 11:45:02;;;;;;;12.82;2.60;;;34.20;72.50;;;;;;5084515;28;20133;-57
2022/06/27 11:47:45;;;;;;;14.43;3.13;;;34.10;72.80;;;;;;5094427;28;20032;-57
2022/06/27 11:50:16;;;;;;;8.93;2.85;;;34.20;76.90;;;;;;5102189;28;20483;-57
2022/06/27 11:52:43;;;;;;;4.97;2.38;;;34.40;75.70;;;;;;5103285;28;20046;-56
2022/06/27 11:55:26;;;;;;;8.50;2.13;;;34.20;73.90;;;;;;5104016;28;20482;-56
2022/06/27 11:57:57;;;;;;;12.77;2.50;;;34.30;73.50;;;;;;5103412;27;20443;-56
2022/06/27 12:00:23;;;;;;;13.02;3.10;;;34.30;73.90;;;;;;5103369;28;20023;-57
2022/06/27 12:03:08;;;;;;;11.85;2.65;;;34.50;74.20;;;;;;5110877;28;20031;-56
2022/06/27 12:05:36;;;;;;;11.52;2.45;;;34.50;75.30;;;;;;5113806;28;20424;-58
2022/06/27 12:08:10;;;;;;;7.00;2.63;;;34.40;72.80;;;;;;5114437;28;20046;-58
2022/06/27 12:10:39;;;;;;;29.10;3.42;;;35.00;75.20;;;;;;5114333;28;20032;-57
2022/06/27 12:13:13;;;;;;;10.27;2.50;;;35.00;72.10;;;;;;5114269;28;20019;-58
2022/06/27 12:15:41;;;;;;;7.15;2.42;;;35.30;70.50;;;;;;5114199;28;20100;-55
2022/06/27 12:18:09;;;;;;;13.45;3.22;;;35.30;69.60;;;;;;5114160;28;20063;-57
2022/06/27 12:20:35;;;;;;;7.00;2.13;;;35.50;70.20;;;;;;5112777;28;20042;-57
2022/06/27 12:23:02;;;;;;;23.60;2.83;;;35.50;72.10;;;;;;5114097;28;20081;-57
2022/06/27 12:25:29;;;;;;;8.77;2.67;;;36.00;72.00;;;;;;5114005;28;20031;-56
2022/06/27 12:27:54;;;;;;;7.65;2.50;;;36.90;70.80;;;;;;5113827;28;20023;-58
2022/06/27 12:30:20;;;;;;;20.15;3.15;;;36.80;67.90;;;;;;5113517;27;20573;-56
2022/06/27 12:32:46;;;;;;;13.05;2.85;;;36.70;68.10;;;;;;5113870;28;20122;-57
2022/06/27 12:35:12;;;;;;;10.43;2.33;;;37.30;67.30;;;;;;5113523;28;20154;-57
2022/06/27 12:37:38;;;;;;;17.13;2.72;;;37.40;65.20;;;;;;5113733;27;20588;-58
2022/06/27 12:40:06;;;;;;;10.15;2.10;;;37.30;64.30;;;;;;5113079;28;20043;-56
2022/06/27 12:42:31;;;;;;;10.93;2.65;;;37.60;65.50;;;;;;5112904;28;20031;-56
2022/06/27 12:44:57;;;;;;;22.15;2.90;;;38.30;64.50;;;;;;5113345;27;20019;-56
2022/06/27 12:47:23;;;;;;;11.57;2.15;;;38.10;63.10;;;;;;5113005;28;20111;-56
2022/06/27 12:49:49;;;;;;;13.32;2.35;;;38.80;65.10;;;;;;5112115;28;20016;-56
2022/06/27 12:52:16;;;;;;;12.23;2.33;;;39.00;64.60;;;;;;5113343;28;20023;-56
2022/06/27 12:54:42;;;;;;;5.95;2.60;;;39.00;63.20;;;;;;5113528;28;20030;-56